createdAt,value
2019-05-02T17:31:56.820Z,4.87
2019-05-02T17:34:30.023Z,5.33
2019-05-02T17:36:53.660Z,4.80
2019-05-02T17:39:23.129Z,4.75
2019-05-02T17:41:52.569Z,4.90
2019-05-02T17:44:24.465Z,4.92
2019-05-02T17:46:58.207Z,4.80
2019-05-02T17:49:34.895Z,5.80
2019-05-02T17:52:05.258Z,4.90
2019-05-02T17:54:28.024Z,5.25
2019-05-02T17:56:59.099Z,4.83
2019-05-02T17:59:34.611Z,5.00
2019-05-02T18:02:01.548Z,5.20
2019-05-02T18:04:32.441Z,5.33
2019-05-02T18:07:02.057Z,5.62
2019-05-02T18:09:34.932Z,5.55
2019-05-02T18:12:02.577Z,5.20
2019-05-02T18:14:32.045Z,4.72
2019-05-02T18:17:01.865Z,4.65
2019-05-02T18:19:31.684Z,5.10
2019-05-02T18:22:03.693Z,5.25
2019-05-02T18:24:32.802Z,5.33
2019-05-02T18:27:02.361Z,5.72
2019-05-02T18:29:36.258Z,5.28
2019-05-02T18:32:02.880Z,5.55
2019-05-02T18:34:32.413Z,5.55
2019-05-02T18:37:03.015Z,5.83
2019-05-02T18:39:34.861Z,5.33
2019-05-02T18:42:04.207Z,6.20
2019-05-02T18:44:33.736Z,6.00
2019-05-02T18:47:03.246Z,5.92
2019-05-02T18:49:32.770Z,6.12
2019-05-02T18:52:02.267Z,5.80
2019-05-02T18:54:38.576Z,6.85
2019-05-02T18:57:07.637Z,6.47
2019-05-02T18:59:38.795Z,6.45
2019-05-02T19:02:08.400Z,7.37
2019-05-02T19:04:42.244Z,7.10
2019-05-02T19:07:14.262Z,8.35
2019-05-02T19:09:50.903Z,7.65
2019-05-02T19:12:19.419Z,8.60
2019-05-02T19:14:42.691Z,9.50
2019-05-02T19:17:12.305Z,7.33
2019-05-02T19:19:42.017Z,9.93
2019-05-02T19:22:13.206Z,8.35
2019-05-02T19:24:42.636Z,13.03
2019-05-02T19:27:13.783Z,12.70
2019-05-02T19:29:48.117Z,13.32
2019-05-02T19:32:17.046Z,14.75
2019-05-02T19:34:45.497Z,17.15
2019-05-02T19:37:15.016Z,13.90
2019-05-02T19:39:48.795Z,15.48
2019-05-02T19:42:17.026Z,16.70
2019-05-02T19:44:47.719Z,28.65
2019-05-02T19:47:17.661Z,27.25
2019-05-02T19:49:52.172Z,43.17
2019-05-02T19:52:18.326Z,34.13
2019-05-02T19:54:47.858Z,41.63
2019-05-02T19:57:22.112Z,45.12
2019-05-02T19:59:48.486Z,51.30
2019-05-02T20:02:18.002Z,46.33
2019-05-02T20:04:47.453Z,28.25
2019-05-02T20:07:16.993Z,26.02
2019-05-02T20:09:47.416Z,26.87
2019-05-02T20:12:17.061Z,26.10
2019-05-02T20:14:47.892Z,30.97
2019-05-02T20:17:20.353Z,38.60
2019-05-02T20:19:50.210Z,26.15
2019-05-02T20:22:19.755Z,15.63
2019-05-02T20:24:59.809Z,15.50
2019-05-02T20:27:27.920Z,13.40
2019-05-02T20:29:56.514Z,13.93
2019-05-02T20:32:26.117Z,15.53
2019-05-02T20:34:55.616Z,13.85
2019-05-02T20:37:25.169Z,17.02
2019-05-02T20:39:54.618Z,15.78
2019-05-02T20:42:24.084Z,17.07
2019-05-02T20:44:53.659Z,15.63
2019-05-02T20:47:25.678Z,20.35
2019-05-02T20:49:55.252Z,22.77
2019-05-02T20:52:24.924Z,20.32
2019-05-02T20:54:54.375Z,19.37
2019-05-02T20:57:23.979Z,16.42
2019-05-02T20:59:53.497Z,18.73
2019-05-02T21:02:22.949Z,19.65
2019-05-02T21:04:53.440Z,25.45
2019-05-02T21:07:25.603Z,29.75
2019-05-02T21:09:56.667Z,29.25
2019-05-02T21:12:26.191Z,35.13
2019-05-02T21:14:55.629Z,23.47
2019-05-02T21:17:25.174Z,16.95
2019-05-02T21:19:54.675Z,14.35
2019-05-02T21:22:28.124Z,19.80
2019-05-02T21:24:57.638Z,19.05
2019-05-02T21:27:27.960Z,19.12
2019-05-02T21:29:57.468Z,16.93
2019-05-02T21:32:26.936Z,22.37
2019-05-02T21:34:56.449Z,17.30
2019-05-02T21:37:25.910Z,19.40
2019-05-02T21:39:55.430Z,18.87
2019-05-02T21:42:24.897Z,19.55
2019-05-02T21:44:55.315Z,21.37
2019-05-02T21:47:25.823Z,19.60
2019-05-02T21:49:57.932Z,16.87
2019-05-02T21:52:29.110Z,16.20
2019-05-02T21:55:01.932Z,16.62
2019-05-02T21:57:32.207Z,21.02
2019-05-02T22:00:02.487Z,16.75
2019-05-02T22:02:33.860Z,17.07
2019-05-02T22:05:03.899Z,14.35
2019-05-02T22:07:34.620Z,18.02
2019-05-02T22:10:07.276Z,13.30
2019-05-02T22:12:36.881Z,12.03
2019-05-02T22:15:07.211Z,15.55
2019-05-02T22:17:36.674Z,12.58
2019-05-02T22:20:06.713Z,15.68
2019-05-02T22:22:36.120Z,13.15
2019-05-02T22:25:07.144Z,17.48
2019-05-02T22:27:36.614Z,13.58
2019-05-02T22:30:07.480Z,16.52
2019-05-02T22:32:36.946Z,14.90
2019-05-02T22:35:07.625Z,13.50
2019-05-02T22:37:38.796Z,18.70
2019-05-02T22:40:13.545Z,19.02
2019-05-02T22:42:43.087Z,14.20
2019-05-02T22:45:13.287Z,16.93
2019-05-02T22:47:42.725Z,11.97
2019-05-02T22:50:14.074Z,10.78
2019-05-02T22:52:43.394Z,10.63
2019-05-02T22:55:12.983Z,13.78
2019-05-02T22:57:44.018Z,13.00
2019-05-02T23:00:14.231Z,9.53
2019-05-02T23:02:43.695Z,9.20
2019-05-02T23:05:13.281Z,9.23
2019-05-02T23:07:42.754Z,10.32
2019-05-02T23:10:12.663Z,11.78
2019-05-02T23:12:42.438Z,8.88
2019-05-02T23:15:12.557Z,8.93
2019-05-02T23:17:43.300Z,10.43
2019-05-02T23:20:12.999Z,8.23
2019-05-02T23:22:42.442Z,8.60
2019-05-02T23:25:32.081Z,8.38
2019-05-02T23:28:02.790Z,9.38
2019-05-02T23:30:32.222Z,6.17
2019-05-02T23:33:02.309Z,8.53
2019-05-02T23:35:32.017Z,7.75
2019-05-02T23:38:02.909Z,7.45
2019-05-02T23:40:32.353Z,6.05
2019-05-02T23:43:01.966Z,6.80
2019-05-02T23:45:31.696Z,5.40
2019-05-02T23:48:02.123Z,5.53
2019-05-02T23:50:31.684Z,5.78
2019-05-02T23:53:02.301Z,4.30
2019-05-02T23:55:32.233Z,5.28
2019-05-02T23:58:02.948Z,6.25
